sensor_id;sensor_type;location;lat;lon;timestamp;P1;durP1;ratioP1;P2;durP2;ratioP2
21677;SDS011;11000;50.360;7.582;2023-03-14T00:01:53;2.77;;;1.17;;
21677;SDS011;11000;50.360;7.582;2023-03-14T00:04:13;5.10;;;1.30;;
21677;SDS011;11000;50.360;7.582;2023-03-14T00:06:34;4.60;;;1.30;;
21677;SDS011;11000;50.360;7.582;2023-03-14T00:08:55;4.87;;;1.30;;
21677;SDS011;11000;50.360;7.582;2023-03-14T00:11:19;6.13;;;1.50;;
21677;SDS011;11000;50.360;7.582;2023-03-14T00:13:40;4.50;;;1.13;;
21677;SDS011;11000;50.360;7.582;2023-03-14T00:16:02;6.43;;;1.37;;
21677;SDS011;11000;50.360;7.582;2023-03-14T00:18:24;5.20;;;1.60;;
21677;SDS011;11000;50.360;7.582;2023-03-14T00:20:44;6.77;;;1.53;;
21677;SDS011;11000;50.360;7.582;2023-03-14T00:23:05;7.63;;;1.63;;
21677;SDS011;11000;50.360;7.582;2023-03-14T00:25:25;9.33;;;1.53;;
21677;SDS011;11000;50.360;7.582;2023-03-14T00:27:46;8.13;;;1.57;;
21677;SDS011;11000;50.360;7.582;2023-03-14T00:30:06;4.03;;;1.50;;
21677;SDS011;11000;50.360;7.582;2023-03-14T00:32:30;8.53;;;1.70;;
21677;SDS011;11000;50.360;7.582;2023-03-14T00:34:50;6.77;;;1.80;;
21677;SDS011;11000;50.360;7.582;2023-03-14T00:37:11;3.43;;;1.20;;
21677;SDS011;11000;50.360;7.582;2023-03-14T00:39:31;8.67;;;1.63;;
21677;SDS011;11000;50.360;7.582;2023-03-14T00:41:52;4.87;;;1.33;;
21677;SDS011;11000;50.360;7.582;2023-03-14T00:44:12;6.83;;;1.53;;
21677;SDS011;11000;50.360;7.582;2023-03-14T00:46:33;6.50;;;1.60;;
21677;SDS011;11000;50.360;7.582;2023-03-14T00:48:53;6.07;;;1.77;;
21677;SDS011;11000;50.360;7.582;2023-03-14T00:51:14;5.03;;;1.70;;
21677;SDS011;11000;50.360;7.582;2023-03-14T00:53:35;4.27;;;1.57;;
21677;SDS011;11000;50.360;7.582;2023-03-14T00:55:57;4.60;;;1.20;;
21677;SDS011;11000;50.360;7.582;2023-03-14T00:58:24;6.27;;;1.70;;
21677;SDS011;11000;50.360;7.582;2023-03-14T01:00:44;6.40;;;1.20;;
21677;SDS011;11000;50.360;7.582;2023-03-14T01:03:06;4.97;;;1.13;;
21677;SDS011;11000;50.360;7.582;2023-03-14T01:05:27;5.07;;;1.83;;
21677;SDS011;11000;50.360;7.582;2023-03-14T01:07:48;7.80;;;1.57;;
21677;SDS011;11000;50.360;7.582;2023-03-14T01:10:09;5.60;;;1.17;;
21677;SDS011;11000;50.360;7.582;2023-03-14T01:12:30;7.23;;;1.33;;
21677;SDS011;11000;50.360;7.582;2023-03-14T01:14:51;5.57;;;1.50;;
21677;SDS011;11000;50.360;7.582;2023-03-14T01:17:11;5.70;;;1.10;;
21677;SDS011;11000;50.360;7.582;2023-03-14T01:19:32;5.50;;;1.43;;
21677;SDS011;11000;50.360;7.582;2023-03-14T01:21:52;5.17;;;1.90;;
21677;SDS011;11000;50.360;7.582;2023-03-14T01:24:13;7.30;;;1.40;;
21677;SDS011;11000;50.360;7.582;2023-03-14T01:26:34;6.40;;;1.60;;
21677;SDS011;11000;50.360;7.582;2023-03-14T01:28:55;6.67;;;1.77;;
21677;SDS011;11000;50.360;7.582;2023-03-14T01:31:16;11.87;;;1.60;;
21677;SDS011;11000;50.360;7.582;2023-03-14T01:33:37;6.80;;;1.60;;
21677;SDS011;11000;50.360;7.582;2023-03-14T01:35:58;4.97;;;1.67;;
21677;SDS011;11000;50.360;7.582;2023-03-14T01:38:21;9.70;;;2.30;;
21677;SDS011;11000;50.360;7.582;2023-03-14T01:40:43;9.17;;;2.00;;
21677;SDS011;11000;50.360;7.582;2023-03-14T01:43:13;8.00;;;1.77;;
21677;SDS011;11000;50.360;7.582;2023-03-14T01:48:30;6.80;;;1.47;;
21677;SDS011;11000;50.360;7.582;2023-03-14T01:51:02;7.73;;;1.57;;
21677;SDS011;11000;50.360;7.582;2023-03-14T01:53:25;4.47;;;1.60;;
21677;SDS011;11000;50.360;7.582;2023-03-14T01:55:45;8.10;;;1.50;;
21677;SDS011;11000;50.360;7.582;2023-03-14T01:58:07;11.60;;;1.67;;
21677;SDS011;11000;50.360;7.582;2023-03-14T02:00:28;8.47;;;1.47;;
21677;SDS011;11000;50.360;7.582;2023-03-14T02:02:50;11.17;;;1.77;;
21677;SDS011;11000;50.360;7.582;2023-03-14T02:05:15;9.40;;;1.70;;
21677;SDS011;11000;50.360;7.582;2023-03-14T02:07:40;7.03;;;1.60;;
21677;SDS011;11000;50.360;7.582;2023-03-14T02:10:11;7.47;;;1.53;;
21677;SDS011;11000;50.360;7.582;2023-03-14T02:12:32;7.00;;;1.63;;
21677;SDS011;11000;50.360;7.582;2023-03-14T02:14:53;6.57;;;1.70;;
21677;SDS011;11000;50.360;7.582;2023-03-14T02:17:14;3.77;;;1.30;;
21677;SDS011;11000;50.360;7.582;2023-03-14T02:22:33;5.33;;;1.50;;
21677;SDS011;11000;50.360;7.582;2023-03-14T02:27:30;4.53;;;1.50;;
21677;SDS011;11000;50.360;7.582;2023-03-14T02:29:52;6.97;;;1.63;;
21677;SDS011;11000;50.360;7.582;2023-03-14T02:32:20;9.30;;;1.70;;
21677;SDS011;11000;50.360;7.582;2023-03-14T02:34:43;7.30;;;1.57;;
21677;SDS011;11000;50.360;7.582;2023-03-14T02:37:06;7.20;;;1.60;;
21677;SDS011;11000;50.360;7.582;2023-03-14T02:39:38;4.27;;;1.23;;
21677;SDS011;11000;50.360;7.582;2023-03-14T02:42:01;6.70;;;1.50;;
21677;SDS011;11000;50.360;7.582;2023-03-14T02:44:22;3.73;;;1.50;;
21677;SDS011;11000;50.360;7.582;2023-03-14T02:46:42;7.87;;;1.57;;
21677;SDS011;11000;50.360;7.582;2023-03-14T02:49:04;8.00;;;1.70;;
21677;SDS011;11000;50.360;7.582;2023-03-14T02:51:28;6.97;;;1.13;;
21677;SDS011;11000;50.360;7.582;2023-03-14T02:53:49;4.67;;;1.57;;
21677;SDS011;11000;50.360;7.582;2023-03-14T02:56:09;6.33;;;1.87;;
21677;SDS011;11000;50.360;7.582;2023-03-14T02:58:30;5.70;;;1.37;;
21677;SDS011;11000;50.360;7.582;2023-03-14T03:00:51;7.73;;;1.40;;
21677;SDS011;11000;50.360;7.582;2023-03-14T03:03:12;11.27;;;2.07;;
21677;SDS011;11000;50.360;7.582;2023-03-14T03:05:33;7.03;;;1.67;;
21677;SDS011;11000;50.360;7.582;2023-03-14T03:07:54;9.57;;;1.57;;
21677;SDS011;11000;50.360;7.582;2023-03-14T03:10:17;6.63;;;1.40;;
21677;SDS011;11000;50.360;7.582;2023-03-14T03:12:37;6.23;;;1.53;;
21677;SDS011;11000;50.360;7.582;2023-03-14T03:14:58;7.47;;;1.70;;
21677;SDS011;11000;50.360;7.582;2023-03-14T03:17:18;6.33;;;1.70;;
21677;SDS011;11000;50.360;7.582;2023-03-14T03:19:39;5.67;;;1.37;;
21677;SDS011;11000;50.360;7.582;2023-03-14T03:22:00;6.57;;;1.40;;
21677;SDS011;11000;50.360;7.582;2023-03-14T03:24:20;7.07;;;1.93;;
21677;SDS011;11000;50.360;7.582;2023-03-14T03:26:41;7.40;;;1.10;;
21677;SDS011;11000;50.360;7.582;2023-03-14T03:29:02;6.60;;;1.53;;
21677;SDS011;11000;50.360;7.582;2023-03-14T03:31:23;5.47;;;1.10;;
21677;SDS011;11000;50.360;7.582;2023-03-14T03:33:43;4.20;;;1.10;;
21677;SDS011;11000;50.360;7.582;2023-03-14T03:36:04;2.27;;;0.90;;
21677;SDS011;11000;50.360;7.582;2023-03-14T03:38:24;4.37;;;1.00;;
21677;SDS011;11000;50.360;7.582;2023-03-14T03:40:45;3.43;;;0.90;;
21677;SDS011;11000;50.360;7.582;2023-03-14T03:43:05;2.80;;;1.07;;
21677;SDS011;11000;50.360;7.582;2023-03-14T03:45:26;6.07;;;1.67;;
21677;SDS011;11000;50.360;7.582;2023-03-14T03:47:47;5.83;;;1.03;;
21677;SDS011;11000;50.360;7.582;2023-03-14T03:50:07;3.33;;;0.73;;
21677;SDS011;11000;50.360;7.582;2023-03-14T03:52:28;3.87;;;0.80;;
21677;SDS011;11000;50.360;7.582;2023-03-14T03:54:49;2.83;;;0.83;;
21677;SDS011;11000;50.360;7.582;2023-03-14T03:57:09;4.73;;;0.93;;
21677;SDS011;11000;50.360;7.582;2023-03-14T03:59:30;2.40;;;0.80;;
21677;SDS011;11000;50.360;7.582;2023-03-14T04:01:50;2.83;;;0.70;;
21677;SDS011;11000;50.360;7.582;2023-03-14T04:04:11;4.47;;;0.90;;
21677;SDS011;11000;50.360;7.582;2023-03-14T04:06:32;1.67;;;0.80;;
21677;SDS011;11000;50.360;7.582;2023-03-14T04:08:53;4.73;;;0.90;;
21677;SDS011;11000;50.360;7.582;2023-03-14T04:11:14;3.93;;;0.60;;
21677;SDS011;11000;50.360;7.582;2023-03-14T04:13:34;2.60;;;0.67;;
21677;SDS011;11000;50.360;7.582;2023-03-14T04:15:55;4.00;;;0.80;;
21677;SDS011;11000;50.360;7.582;2023-03-14T04:18:16;2.83;;;0.63;;
21677;SDS011;11000;50.360;7.582;2023-03-14T04:20:36;1.00;;;0.60;;
21677;SDS011;11000;50.360;7.582;2023-03-14T04:22:57;3.20;;;0.87;;
21677;SDS011;11000;50.360;7.582;2023-03-14T04:25:17;3.53;;;0.50;;
21677;SDS011;11000;50.360;7.582;2023-03-14T04:27:39;4.03;;;0.70;;
21677;SDS011;11000;50.360;7.582;2023-03-14T04:30:00;2.77;;;0.63;;
21677;SDS011;11000;50.360;7.582;2023-03-14T04:32:20;2.23;;;1.07;;
21677;SDS011;11000;50.360;7.582;2023-03-14T04:34:41;1.10;;;0.77;;
21677;SDS011;11000;50.360;7.582;2023-03-14T04:37:01;4.20;;;0.60;;
21677;SDS011;11000;50.360;7.582;2023-03-14T04:39:22;1.70;;;0.70;;
21677;SDS011;11000;50.360;7.582;2023-03-14T04:41:43;2.53;;;0.60;;
21677;SDS011;11000;50.360;7.582;2023-03-14T04:44:04;3.60;;;0.83;;
21677;SDS011;11000;50.360;7.582;2023-03-14T04:46:25;2.90;;;0.60;;
21677;SDS011;11000;50.360;7.582;2023-03-14T04:48:45;3.47;;;0.50;;
21677;SDS011;11000;50.360;7.582;2023-03-14T04:51:06;1.90;;;0.43;;
21677;SDS011;11000;50.360;7.582;2023-03-14T04:53:27;2.00;;;0.57;;
21677;SDS011;11000;50.360;7.582;2023-03-14T04:55:48;1.67;;;0.40;;
21677;SDS011;11000;50.360;7.582;2023-03-14T04:58:09;3.70;;;0.70;;
21677;SDS011;11000;50.360;7.582;2023-03-14T05:00:30;0.83;;;0.60;;
21677;SDS011;11000;50.360;7.582;2023-03-14T05:02:51;0.97;;;0.30;;
21677;SDS011;11000;50.360;7.582;2023-03-14T05:05:11;1.37;;;0.27;;
21677;SDS011;11000;50.360;7.582;2023-03-14T05:07:32;0.90;;;0.30;;
21677;SDS011;11000;50.360;7.582;2023-03-14T05:09:52;2.33;;;0.50;;
21677;SDS011;11000;50.360;7.582;2023-03-14T05:12:13;1.90;;;0.50;;
21677;SDS011;11000;50.360;7.582;2023-03-14T05:14:33;1.37;;;0.60;;
21677;SDS011;11000;50.360;7.582;2023-03-14T05:16:54;1.03;;;0.20;;
21677;SDS011;11000;50.360;7.582;2023-03-14T05:19:14;1.53;;;0.30;;
21677;SDS011;11000;50.360;7.582;2023-03-14T05:21:35;1.87;;;0.30;;
21677;SDS011;11000;50.360;7.582;2023-03-14T05:23:55;2.30;;;0.30;;
21677;SDS011;11000;50.360;7.582;2023-03-14T05:26:16;0.73;;;0.30;;
21677;SDS011;11000;50.360;7.582;2023-03-14T05:28:36;0.40;;;0.20;;
21677;SDS011;11000;50.360;7.582;2023-03-14T05:30:57;0.57;;;0.20;;
21677;SDS011;11000;50.360;7.582;2023-03-14T05:33:17;1.90;;;0.33;;
21677;SDS011;11000;50.360;7.582;2023-03-14T05:35:38;1.83;;;0.30;;
21677;SDS011;11000;50.360;7.582;2023-03-14T05:37:59;1.77;;;0.30;;
21677;SDS011;11000;50.360;7.582;2023-03-14T05:40:20;0.80;;;0.30;;
21677;SDS011;11000;50.360;7.582;2023-03-14T05:42:40;0.70;;;0.20;;
21677;SDS011;11000;50.360;7.582;2023-03-14T05:45:01;1.40;;;0.30;;
21677;SDS011;11000;50.360;7.582;2023-03-14T05:47:21;0.73;;;0.23;;
21677;SDS011;11000;50.360;7.582;2023-03-14T05:49:42;0.40;;;0.20;;
21677;SDS011;11000;50.360;7.582;2023-03-14T05:52:02;0.50;;;0.20;;
21677;SDS011;11000;50.360;7.582;2023-03-14T05:54:23;0.57;;;0.27;;
21677;SDS011;11000;50.360;7.582;2023-03-14T05:56:44;1.97;;;0.30;;
21677;SDS011;11000;50.360;7.582;2023-03-14T05:59:04;0.83;;;0.30;;
21677;SDS011;11000;50.360;7.582;2023-03-14T06:01:27;1.23;;;0.30;;
21677;SDS011;11000;50.360;7.582;2023-03-14T06:03:48;0.23;;;0.20;;
21677;SDS011;11000;50.360;7.582;2023-03-14T06:06:08;1.27;;;0.27;;
21677;SDS011;11000;50.360;7.582;2023-03-14T06:08:28;0.87;;;0.30;;
21677;SDS011;11000;50.360;7.582;2023-03-14T06:10:49;1.50;;;0.20;;
21677;SDS011;11000;50.360;7.582;2023-03-14T06:13:10;1.13;;;0.37;;
21677;SDS011;11000;50.360;7.582;2023-03-14T06:15:31;1.97;;;0.37;;
21677;SDS011;11000;50.360;7.582;2023-03-14T06:17:55;1.20;;;0.40;;
21677;SDS011;11000;50.360;7.582;2023-03-14T06:20:16;1.30;;;0.33;;
21677;SDS011;11000;50.360;7.582;2023-03-14T06:22:36;0.80;;;0.40;;
21677;SDS011;11000;50.360;7.582;2023-03-14T06:24:58;0.63;;;0.30;;
21677;SDS011;11000;50.360;7.582;2023-03-14T06:27:18;0.53;;;0.30;;
21677;SDS011;11000;50.360;7.582;2023-03-14T06:29:39;1.00;;;0.20;;
21677;SDS011;11000;50.360;7.582;2023-03-14T06:31:59;0.93;;;0.30;;
21677;SDS011;11000;50.360;7.582;2023-03-14T06:34:20;1.50;;;0.23;;
21677;SDS011;11000;50.360;7.582;2023-03-14T06:36:40;0.53;;;0.30;;
21677;SDS011;11000;50.360;7.582;2023-03-14T06:39:01;2.00;;;0.37;;
21677;SDS011;11000;50.360;7.582;2023-03-14T06:41:21;2.43;;;0.40;;
21677;SDS011;11000;50.360;7.582;2023-03-14T06:43:43;0.80;;;0.40;;
21677;SDS011;11000;50.360;7.582;2023-03-14T06:46:04;0.83;;;0.47;;
21677;SDS011;11000;50.360;7.582;2023-03-14T06:48:25;1.43;;;0.63;;
21677;SDS011;11000;50.360;7.582;2023-03-14T06:50:45;2.33;;;0.40;;
21677;SDS011;11000;50.360;7.582;2023-03-14T06:53:08;2.40;;;0.40;;
21677;SDS011;11000;50.360;7.582;2023-03-14T06:55:28;1.57;;;0.40;;
21677;SDS011;11000;50.360;7.582;2023-03-14T06:57:49;1.97;;;0.50;;
21677;SDS011;11000;50.360;7.582;2023-03-14T07:00:09;3.90;;;0.83;;
21677;SDS011;11000;50.360;7.582;2023-03-14T07:02:31;1.20;;;0.23;;
21677;SDS011;11000;50.360;7.582;2023-03-14T07:04:52;1.60;;;0.50;;
21677;SDS011;11000;50.360;7.582;2023-03-14T07:07:12;1.47;;;0.60;;
21677;SDS011;11000;50.360;7.582;2023-03-14T07:09:33;2.30;;;0.50;;
21677;SDS011;11000;50.360;7.582;2023-03-14T07:11:55;2.57;;;0.50;;
21677;SDS011;11000;50.360;7.582;2023-03-14T07:14:15;0.97;;;0.20;;
21677;SDS011;11000;50.360;7.582;2023-03-14T07:16:36;0.60;;;0.37;;
21677;SDS011;11000;50.360;7.582;2023-03-14T07:18:56;1.40;;;0.50;;
21677;SDS011;11000;50.360;7.582;2023-03-14T07:21:17;3.03;;;0.80;;
21677;SDS011;11000;50.360;7.582;2023-03-14T07:23:38;1.73;;;0.40;;
21677;SDS011;11000;50.360;7.582;2023-03-14T07:25:58;1.67;;;0.40;;
21677;SDS011;11000;50.360;7.582;2023-03-14T07:28:19;2.00;;;0.50;;
21677;SDS011;11000;50.360;7.582;2023-03-14T07:30:39;0.60;;;0.37;;
21677;SDS011;11000;50.360;7.582;2023-03-14T07:33:00;2.83;;;0.50;;
21677;SDS011;11000;50.360;7.582;2023-03-14T07:35:20;1.13;;;0.20;;
21677;SDS011;11000;50.360;7.582;2023-03-14T07:37:41;1.77;;;0.50;;
21677;SDS011;11000;50.360;7.582;2023-03-14T07:40:01;0.80;;;0.30;;
21677;SDS011;11000;50.360;7.582;2023-03-14T07:42:25;1.17;;;0.30;;
21677;SDS011;11000;50.360;7.582;2023-03-14T07:44:46;2.93;;;0.37;;
21677;SDS011;11000;50.360;7.582;2023-03-14T07:47:06;1.60;;;0.30;;
21677;SDS011;11000;50.360;7.582;2023-03-14T07:49:27;2.67;;;0.30;;
21677;SDS011;11000;50.360;7.582;2023-03-14T07:51:48;0.83;;;0.20;;
21677;SDS011;11000;50.360;7.582;2023-03-14T07:54:08;0.20;;;0.10;;
21677;SDS011;11000;50.360;7.582;2023-03-14T07:56:29;0.10;;;0.10;;
21677;SDS011;11000;50.360;7.582;2023-03-14T07:58:49;1.00;;;0.20;;
21677;SDS011;11000;50.360;7.582;2023-03-14T08:01:10;0.67;;;0.20;;
21677;SDS011;11000;50.360;7.582;2023-03-14T08:03:30;0.20;;;0.20;;
21677;SDS011;11000;50.360;7.582;2023-03-14T08:05:51;0.33;;;0.20;;
21677;SDS011;11000;50.360;7.582;2023-03-14T08:08:11;0.37;;;0.20;;
21677;SDS011;11000;50.360;7.582;2023-03-14T08:10:32;1.17;;;0.30;;
21677;SDS011;11000;50.360;7.582;2023-03-14T08:12:54;0.20;;;0.20;;
21677;SDS011;11000;50.360;7.582;2023-03-14T08:15:16;0.10;;;0.10;;
21677;SDS011;11000;50.360;7.582;2023-03-14T08:17:36;0.10;;;0.10;;
21677;SDS011;11000;50.360;7.582;2023-03-14T08:19:57;1.00;;;0.10;;
21677;SDS011;11000;50.360;7.582;2023-03-14T08:22:17;0.10;;;0.10;;
21677;SDS011;11000;50.360;7.582;2023-03-14T08:24:38;0.33;;;0.13;;
21677;SDS011;11000;50.360;7.582;2023-03-14T08:26:58;0.20;;;0.10;;
21677;SDS011;11000;50.360;7.582;2023-03-14T08:29:19;0.87;;;0.10;;
21677;SDS011;11000;50.360;7.582;2023-03-14T08:31:39;0.20;;;0.10;;
21677;SDS011;11000;50.360;7.582;2023-03-14T08:34:00;1.40;;;0.10;;
21677;SDS011;11000;50.360;7.582;2023-03-14T08:36:21;0.10;;;0.10;;
21677;SDS011;11000;50.360;7.582;2023-03-14T08:38:42;0.53;;;0.10;;
21677;SDS011;11000;50.360;7.582;2023-03-14T08:41:02;0.13;;;0.07;;
21677;SDS011;11000;50.360;7.582;2023-03-14T08:43:23;0.43;;;0.20;;
21677;SDS011;11000;50.360;7.582;2023-03-14T08:45:44;0.30;;;0.10;;
21677;SDS011;11000;50.360;7.582;2023-03-14T08:48:05;1.03;;;0.10;;
21677;SDS011;11000;50.360;7.582;2023-03-14T08:50:25;0.77;;;0.23;;
21677;SDS011;11000;50.360;7.582;2023-03-14T08:52:46;0.27;;;0.10;;
21677;SDS011;11000;50.360;7.582;2023-03-14T08:55:07;0.40;;;0.20;;
21677;SDS011;11000;50.360;7.582;2023-03-14T08:57:28;0.30;;;0.30;;
21677;SDS011;11000;50.360;7.582;2023-03-14T08:59:49;0.00;;;0.00;;
21677;SDS011;11000;50.360;7.582;2023-03-14T09:02:12;0.30;;;0.13;;
21677;SDS011;11000;50.360;7.582;2023-03-14T09:04:33;0.70;;;0.10;;
21677;SDS011;11000;50.360;7.582;2023-03-14T09:06:53;1.03;;;0.10;;
21677;SDS011;11000;50.360;7.582;2023-03-14T09:09:14;2.23;;;0.20;;
21677;SDS011;11000;50.360;7.582;2023-03-14T09:11:34;0.77;;;0.13;;
21677;SDS011;11000;50.360;7.582;2023-03-14T09:13:55;0.60;;;0.30;;
21677;SDS011;11000;50.360;7.582;2023-03-14T09:16:16;0.50;;;0.10;;
21677;SDS011;11000;50.360;7.582;2023-03-14T09:18:37;0.57;;;0.20;;
21677;SDS011;11000;50.360;7.582;2023-03-14T09:20:58;0.40;;;0.30;;
21677;SDS011;11000;50.360;7.582;2023-03-14T09:23:18;1.43;;;0.23;;
21677;SDS011;11000;50.360;7.582;2023-03-14T09:25:38;0.50;;;0.30;;
21677;SDS011;11000;50.360;7.582;2023-03-14T09:27:59;0.53;;;0.33;;
21677;SDS011;11000;50.360;7.582;2023-03-14T09:30:19;0.87;;;0.20;;
21677;SDS011;11000;50.360;7.582;2023-03-14T09:32:40;0.20;;;0.20;;
21677;SDS011;11000;50.360;7.582;2023-03-14T09:35:01;0.73;;;0.30;;
21677;SDS011;11000;50.360;7.582;2023-03-14T09:37:21;0.23;;;0.20;;
21677;SDS011;11000;50.360;7.582;2023-03-14T09:39:42;0.80;;;0.40;;
21677;SDS011;11000;50.360;7.582;2023-03-14T09:42:04;0.40;;;0.30;;
21677;SDS011;11000;50.360;7.582;2023-03-14T09:44:32;0.50;;;0.43;;
21677;SDS011;11000;50.360;7.582;2023-03-14T09:46:55;0.63;;;0.20;;
21677;SDS011;11000;50.360;7.582;2023-03-14T09:49:24;0.57;;;0.30;;
21677;SDS011;11000;50.360;7.582;2023-03-14T09:51:51;0.50;;;0.30;;
21677;SDS011;11000;50.360;7.582;2023-03-14T09:54:18;0.47;;;0.17;;
21677;SDS011;11000;50.360;7.582;2023-03-14T09:56:49;0.40;;;0.13;;
21677;SDS011;11000;50.360;7.582;2023-03-14T09:59:11;0.20;;;0.20;;
21677;SDS011;11000;50.360;7.582;2023-03-14T10:01:33;0.67;;;0.20;;
21677;SDS011;11000;50.360;7.582;2023-03-14T10:03:55;0.40;;;0.10;;
21677;SDS011;11000;50.360;7.582;2023-03-14T10:06:25;0.30;;;0.20;;
21677;SDS011;11000;50.360;7.582;2023-03-14T10:08:48;0.00;;;0.00;;
21677;SDS011;11000;50.360;7.582;2023-03-14T10:11:13;0.67;;;0.30;;
21677;SDS011;11000;50.360;7.582;2023-03-14T10:13:36;0.73;;;0.10;;
21677;SDS011;11000;50.360;7.582;2023-03-14T10:16:31;1.00;;;0.10;;
21677;SDS011;11000;50.360;7.582;2023-03-14T10:18:53;1.57;;;0.40;;
21677;SDS011;11000;50.360;7.582;2023-03-14T10:21:21;1.50;;;0.40;;
21677;SDS011;11000;50.360;7.582;2023-03-14T10:23:47;0.63;;;0.20;;
21677;SDS011;11000;50.360;7.582;2023-03-14T10:26:14;0.27;;;0.20;;
21677;SDS011;11000;50.360;7.582;2023-03-14T10:28:41;0.20;;;0.20;;
21677;SDS011;11000;50.360;7.582;2023-03-14T10:31:07;0.27;;;0.10;;
21677;SDS011;11000;50.360;7.582;2023-03-14T10:33:29;0.13;;;0.13;;
21677;SDS011;11000;50.360;7.582;2023-03-14T10:35:56;0.30;;;0.10;;
21677;SDS011;11000;50.360;7.582;2023-03-14T10:38:23;0.87;;;0.10;;
21677;SDS011;11000;50.360;7.582;2023-03-14T10:40:47;0.10;;;0.10;;
21677;SDS011;11000;50.360;7.582;2023-03-14T10:43:13;0.00;;;0.00;;
21677;SDS011;11000;50.360;7.582;2023-03-14T10:45:41;0.20;;;0.10;;
21677;SDS011;11000;50.360;7.582;2023-03-14T10:48:20;0.10;;;0.10;;
21677;SDS011;11000;50.360;7.582;2023-03-14T10:50:50;4.17;;;0.67;;
21677;SDS011;11000;50.360;7.582;2023-03-14T10:53:46;1.10;;;0.40;;
21677;SDS011;11000;50.360;7.582;2023-03-14T10:56:13;2.33;;;0.40;;
21677;SDS011;11000;50.360;7.582;2023-03-14T10:58:44;2.43;;;0.70;;
21677;SDS011;11000;50.360;7.582;2023-03-14T11:06:44;2.17;;;0.30;;
21677;SDS011;11000;50.360;7.582;2023-03-14T11:09:18;0.53;;;0.20;;
21677;SDS011;11000;50.360;7.582;2023-03-14T11:12:03;1.53;;;0.40;;
21677;SDS011;11000;50.360;7.582;2023-03-14T11:14:41;0.20;;;0.20;;
21677;SDS011;11000;50.360;7.582;2023-03-14T11:20:15;0.97;;;0.20;;
21677;SDS011;11000;50.360;7.582;2023-03-14T11:28:18;0.87;;;0.50;;
21677;SDS011;11000;50.360;7.582;2023-03-14T11:30:54;0.37;;;0.37;;
21677;SDS011;11000;50.360;7.582;2023-03-14T11:33:24;0.47;;;0.30;;
21677;SDS011;11000;50.360;7.582;2023-03-14T11:35:58;0.67;;;0.57;;
21677;SDS011;11000;50.360;7.582;2023-03-14T11:38:28;0.50;;;0.50;;
21677;SDS011;11000;50.360;7.582;2023-03-14T11:41:03;0.93;;;0.70;;
21677;SDS011;11000;50.360;7.582;2023-03-14T11:43:32;0.63;;;0.60;;
21677;SDS011;11000;50.360;7.582;2023-03-14T11:46:00;1.63;;;0.80;;
21677;SDS011;11000;50.360;7.582;2023-03-14T11:48:41;0.60;;;0.60;;
21677;SDS011;11000;50.360;7.582;2023-03-14T11:51:26;0.80;;;0.80;;
21677;SDS011;11000;50.360;7.582;2023-03-14T11:54:11;1.60;;;0.90;;
21677;SDS011;11000;50.360;7.582;2023-03-14T11:56:44;0.87;;;0.80;;
21677;SDS011;11000;50.360;7.582;2023-03-14T11:59:09;0.73;;;0.70;;
21677;SDS011;11000;50.360;7.582;2023-03-14T12:01:41;0.50;;;0.50;;
21677;SDS011;11000;50.360;7.582;2023-03-14T12:04:13;1.40;;;0.60;;
21677;SDS011;11000;50.360;7.582;2023-03-14T12:06:47;0.67;;;0.67;;
21677;SDS011;11000;50.360;7.582;2023-03-14T12:09:09;1.27;;;0.80;;
21677;SDS011;11000;50.360;7.582;2023-03-14T12:11:47;0.73;;;0.70;;
21677;SDS011;11000;50.360;7.582;2023-03-14T12:14:19;1.13;;;0.70;;
21677;SDS011;11000;50.360;7.582;2023-03-14T12:16:43;1.03;;;0.77;;
21677;SDS011;11000;50.360;7.582;2023-03-14T12:19:13;1.93;;;0.83;;
21677;SDS011;11000;50.360;7.582;2023-03-14T12:21:43;1.60;;;0.60;;
21677;SDS011;11000;50.360;7.582;2023-03-14T12:24:16;0.60;;;0.60;;
21677;SDS011;11000;50.360;7.582;2023-03-14T12:26:52;0.70;;;0.50;;
21677;SDS011;11000;50.360;7.582;2023-03-14T12:29:17;1.80;;;0.30;;
21677;SDS011;11000;50.360;7.582;2023-03-14T12:31:40;0.63;;;0.23;;
21677;SDS011;11000;50.360;7.582;2023-03-14T12:37:14;0.30;;;0.23;;
21677;SDS011;11000;50.360;7.582;2023-03-14T12:39:33;0.50;;;0.30;;
21677;SDS011;11000;50.360;7.582;2023-03-14T12:46:51;1.20;;;0.30;;
21677;SDS011;11000;50.360;7.582;2023-03-14T12:49:11;0.40;;;0.40;;
21677;SDS011;11000;50.360;7.582;2023-03-14T12:56:39;0.47;;;0.20;;
21677;SDS011;11000;50.360;7.582;2023-03-14T13:04:32;0.20;;;0.20;;
21677;SDS011;11000;50.360;7.582;2023-03-14T13:07:35;0.20;;;0.20;;
21677;SDS011;11000;50.360;7.582;2023-03-14T13:10:16;0.27;;;0.27;;
21677;SDS011;11000;50.360;7.582;2023-03-14T13:12:39;0.53;;;0.40;;
21677;SDS011;11000;50.360;7.582;2023-03-14T13:17:48;1.43;;;0.40;;
21677;SDS011;11000;50.360;7.582;2023-03-14T13:20:12;0.70;;;0.27;;
21677;SDS011;11000;50.360;7.582;2023-03-14T13:22:39;0.13;;;0.13;;
21677;SDS011;11000;50.360;7.582;2023-03-14T13:25:09;0.60;;;0.20;;
21677;SDS011;11000;50.360;7.582;2023-03-14T13:27:31;0.10;;;0.10;;
21677;SDS011;11000;50.360;7.582;2023-03-14T13:29:53;1.53;;;0.33;;
21677;SDS011;11000;50.360;7.582;2023-03-14T13:32:21;0.63;;;0.33;;
21677;SDS011;11000;50.360;7.582;2023-03-14T13:34:45;0.30;;;0.30;;
21677;SDS011;11000;50.360;7.582;2023-03-14T13:37:20;1.87;;;0.30;;
21677;SDS011;11000;50.360;7.582;2023-03-14T13:39:42;2.93;;;0.80;;
21677;SDS011;11000;50.360;7.582;2023-03-14T13:42:13;1.93;;;0.67;;
21677;SDS011;11000;50.360;7.582;2023-03-14T13:44:36;0.90;;;0.90;;
21677;SDS011;11000;50.360;7.582;2023-03-14T13:46:59;0.60;;;0.47;;
21677;SDS011;11000;50.360;7.582;2023-03-14T13:49:21;1.57;;;0.80;;
21677;SDS011;11000;50.360;7.582;2023-03-14T13:51:43;2.03;;;0.70;;
21677;SDS011;11000;50.360;7.582;2023-03-14T13:54:11;1.00;;;0.90;;
21677;SDS011;11000;50.360;7.582;2023-03-14T13:56:35;1.27;;;0.50;;
21677;SDS011;11000;50.360;7.582;2023-03-14T13:58:55;0.73;;;0.50;;
21677;SDS011;11000;50.360;7.582;2023-03-14T14:01:16;0.47;;;0.47;;
21677;SDS011;11000;50.360;7.582;2023-03-14T14:03:39;2.33;;;0.60;;
21677;SDS011;11000;50.360;7.582;2023-03-14T14:06:01;1.63;;;0.50;;
21677;SDS011;11000;50.360;7.582;2023-03-14T14:08:21;0.40;;;0.40;;
21677;SDS011;11000;50.360;7.582;2023-03-14T14:10:42;2.17;;;0.60;;
21677;SDS011;11000;50.360;7.582;2023-03-14T14:13:08;0.40;;;0.40;;
21677;SDS011;11000;50.360;7.582;2023-03-14T14:15:35;1.70;;;0.57;;
21677;SDS011;11000;50.360;7.582;2023-03-14T14:18:02;0.40;;;0.40;;
21677;SDS011;11000;50.360;7.582;2023-03-14T14:20:30;0.90;;;0.50;;
21677;SDS011;11000;50.360;7.582;2023-03-14T14:22:55;0.40;;;0.40;;
21677;SDS011;11000;50.360;7.582;2023-03-14T14:25:16;0.50;;;0.30;;
21677;SDS011;11000;50.360;7.582;2023-03-14T14:27:38;1.70;;;0.23;;
21677;SDS011;11000;50.360;7.582;2023-03-14T14:30:04;0.43;;;0.20;;
21677;SDS011;11000;50.360;7.582;2023-03-14T14:32:26;1.00;;;0.40;;
21677;SDS011;11000;50.360;7.582;2023-03-14T14:34:57;4.73;;;0.40;;
21677;SDS011;11000;50.360;7.582;2023-03-14T14:37:20;0.97;;;0.10;;
21677;SDS011;11000;50.360;7.582;2023-03-14T14:39:43;0.30;;;0.20;;
21677;SDS011;11000;50.360;7.582;2023-03-14T14:42:04;0.40;;;0.20;;
21677;SDS011;11000;50.360;7.582;2023-03-14T14:44:28;0.37;;;0.20;;
21677;SDS011;11000;50.360;7.582;2023-03-14T14:46:53;1.00;;;0.20;;
21677;SDS011;11000;50.360;7.582;2023-03-14T14:49:17;0.90;;;0.20;;
21677;SDS011;11000;50.360;7.582;2023-03-14T14:51:43;0.67;;;0.30;;
21677;SDS011;11000;50.360;7.582;2023-03-14T14:54:11;0.20;;;0.20;;
21677;SDS011;11000;50.360;7.582;2023-03-14T14:56:35;0.30;;;0.30;;
21677;SDS011;11000;50.360;7.582;2023-03-14T14:59:00;0.30;;;0.30;;
21677;SDS011;11000;50.360;7.582;2023-03-14T15:01:25;1.17;;;0.40;;
21677;SDS011;11000;50.360;7.582;2023-03-14T15:03:51;0.40;;;0.40;;
21677;SDS011;11000;50.360;7.582;2023-03-14T15:06:14;0.60;;;0.37;;
21677;SDS011;11000;50.360;7.582;2023-03-14T15:08:36;1.13;;;0.50;;